Time;durP1;ratioP1;P1;durP2;ratioP2;P2;SDS_P1;SDS_P2;PMS_P1;PMS_P2;Temp;Humidity;BMP_temperature;BMP_pressure;BME280_temperature;BME280_humidity;BME280_pressure;Samples;Min_cycle;Max_cycle;Signal;HPM_P1;HPM_P2
2022/06/16 00:00:47;;;;;;;5.55;2.50;;;14.70;99.90;;;;;;5068335;28;20072;-69
2022/06/16 00:03:14;;;;;;;5.25;2.40;;;14.70;99.90;;;;;;5065046;28;20033;-70
2022/06/16 00:05:44;;;;;;;5.85;2.60;;;14.70;99.90;;;;;;5065498;28;20393;-70
2022/06/16 00:08:12;;;;;;;4.95;2.40;;;14.60;99.90;;;;;;5047453;28;20135;-69
2022/06/16 00:11:15;;;;;;;4.38;2.40;;;14.60;99.90;;;;;;5062556;28;20213;-69
2022/06/16 00:13:24;;;;;;;5.95;2.70;;;14.60;99.90;;;;;;5056769;28;20044;-71
2022/06/16 00:15:50;;;;;;;8.32;2.55;;;14.60;99.90;;;;;;5069212;28;20047;-70
2022/06/16 00:18:15;;;;;;;5.00;2.40;;;14.60;99.90;;;;;;5048926;28;20052;-71
2022/06/16 00:20:42;;;;;;;4.93;2.30;;;14.60;99.90;;;;;;5045426;28;20499;-71
2022/06/16 00:23:08;;;;;;;4.85;2.42;;;14.50;99.90;;;;;;5068204;28;20041;-71
2022/06/16 00:25:34;;;;;;;4.43;2.20;;;14.50;99.90;;;;;;5063590;28;20055;-71
2022/06/16 00:28:00;;;;;;;4.97;2.05;;;14.50;99.90;;;;;;5060910;28;20033;-71
2022/06/16 00:30:26;;;;;;;3.90;2.00;;;14.50;99.90;;;;;;5060106;28;20642;-71
2022/06/16 00:32:51;;;;;;;5.40;2.45;;;14.50;99.90;;;;;;5061410;28;20123;-71
2022/06/16 00:35:17;;;;;;;6.57;2.47;;;14.50;99.90;;;;;;5059229;28;20036;-71
2022/06/16 00:37:42;;;;;;;4.57;2.42;;;14.50;99.90;;;;;;5056042;28;20292;-71
2022/06/16 00:40:09;;;;;;;2.90;2.07;;;14.40;99.90;;;;;;5058113;28;20501;-70
2022/06/16 00:42:35;;;;;;;4.22;2.47;;;14.40;99.90;;;;;;5062519;28;20041;-71
2022/06/16 00:45:01;;;;;;;5.20;2.17;;;14.40;99.90;;;;;;5071154;28;20039;-70
2022/06/16 00:47:30;;;;;;;5.35;2.67;;;14.40;99.90;;;;;;5058440;28;20044;-70
2022/06/16 00:50:01;;;;;;;6.47;2.67;;;14.40;99.90;;;;;;5047181;28;20033;-71
2022/06/16 00:52:32;;;;;;;5.18;2.15;;;14.30;99.90;;;;;;5061489;28;20047;-70
2022/06/16 00:55:12;;;;;;;5.43;2.30;;;14.30;99.90;;;;;;5068947;28;20028;-71
2022/06/16 00:57:43;;;;;;;7.05;2.90;;;14.40;99.90;;;;;;5064325;28;20072;-71
2022/06/16 01:02:47;;;;;;;5.65;2.60;;;14.30;99.90;;;;;;5057876;28;20444;-70
2022/06/16 01:05:13;;;;;;;4.22;2.20;;;14.30;99.90;;;;;;5041679;28;20097;-71
2022/06/16 01:07:43;;;;;;;4.22;2.05;;;14.30;99.90;;;;;;5060612;28;20385;-71
2022/06/16 01:10:11;;;;;;;5.47;2.13;;;14.30;99.90;;;;;;5062519;28;20401;-70
2022/06/16 01:16:21;;;;;;;6.57;2.00;;;14.30;99.90;;;;;;5059899;28;20509;-71
2022/06/16 01:19:05;;;;;;;5.18;2.17;;;14.30;99.90;;;;;;5040868;28;20049;-70
2022/06/16 01:21:47;;;;;;;3.92;1.80;;;14.30;99.90;;;;;;5047774;28;20088;-71
2022/06/16 01:24:38;;;;;;;3.03;1.90;;;14.30;99.90;;;;;;5048655;28;20540;-71
2022/06/16 01:27:28;;;;;;;5.20;1.80;;;14.40;99.90;;;;;;5068709;28;20048;-70
2022/06/16 01:30:14;;;;;;;4.18;2.35;;;14.30;99.90;;;;;;5047434;28;20124;-70
2022/06/16 01:32:56;;;;;;;3.63;2.10;;;14.40;99.90;;;;;;5065710;28;20040;-71
2022/06/16 01:36:01;;;;;;;5.35;2.10;;;14.30;99.90;;;;;;5056385;28;20060;-70
2022/06/16 01:38:52;;;;;;;4.78;2.33;;;14.40;99.90;;;;;;5066282;28;20531;-71
2022/06/16 01:41:23;;;;;;;3.58;2.13;;;14.30;99.90;;;;;;5055460;28;20044;-71
2022/06/16 01:43:55;;;;;;;4.00;1.88;;;14.30;99.90;;;;;;5069431;28;20517;-71
2022/06/16 01:46:31;;;;;;;3.53;2.38;;;14.40;99.90;;;;;;5063851;28;20511;-70
2022/06/16 01:49:12;;;;;;;6.43;2.20;;;14.40;99.90;;;;;;5059672;28;20305;-70
2022/06/16 01:51:43;;;;;;;5.68;2.25;;;14.30;99.90;;;;;;5067780;28;20048;-71
2022/06/16 01:54:15;;;;;;;4.35;2.63;;;14.30;99.90;;;;;;5066509;28;20456;-71
2022/06/16 01:56:48;;;;;;;3.88;2.20;;;14.30;99.90;;;;;;5060029;28;20435;-71
2022/06/16 01:59:30;;;;;;;4.63;2.15;;;14.30;99.90;;;;;;5074722;28;20041;-71
2022/06/16 02:02:03;;;;;;;4.30;2.00;;;14.30;99.90;;;;;;5056238;28;20033;-71
2022/06/16 02:04:36;;;;;;;4.30;2.53;;;14.30;99.90;;;;;;5048104;28;20117;-71
2022/06/16 02:07:07;;;;;;;4.80;2.10;;;14.30;99.90;;;;;;5050303;28;20078;-71
2022/06/16 02:09:39;;;;;;;3.70;1.55;;;14.20;99.90;;;;;;5061068;28;20044;-71
2022/06/16 02:12:10;;;;;;;5.35;2.22;;;14.20;99.90;;;;;;5068776;28;20470;-71
2022/06/16 02:14:44;;;;;;;4.07;2.20;;;14.20;99.90;;;;;;5066936;28;20028;-71
2022/06/16 02:17:10;;;;;;;4.68;2.08;;;14.20;99.90;;;;;;5060762;28;20051;-71
2022/06/16 02:19:37;;;;;;;6.13;2.45;;;14.20;99.90;;;;;;5051485;28;20068;-71
2022/06/16 02:22:03;;;;;;;5.47;2.42;;;14.20;99.90;;;;;;5066463;28;20032;-71
2022/06/16 02:24:30;;;;;;;3.33;2.03;;;14.20;99.90;;;;;;5043936;28;20504;-70
2022/06/16 02:26:58;;;;;;;5.18;1.95;;;14.10;99.90;;;;;;5088089;22;20047;-68
2022/06/16 02:29:34;;;;;;;3.92;2.28;;;14.10;99.90;;;;;;5064975;28;20183;-68
2022/06/16 02:32:39;;;;;;;6.93;2.30;;;14.10;99.90;;;;;;5043276;28;20095;-68
2022/06/16 02:35:13;;;;;;;3.53;1.50;;;14.10;99.90;;;;;;5038404;28;20497;-68
2022/06/16 02:37:49;;;;;;;5.85;1.90;;;14.00;99.90;;;;;;5044596;28;20044;-68
2022/06/16 02:40:26;;;;;;;6.03;2.40;;;14.00;99.90;;;;;;5048594;28;20456;-68
2022/06/16 02:43:05;;;;;;;8.18;2.03;;;14.00;99.90;;;;;;5039008;28;20041;-68
2022/06/16 02:45:36;;;;;;;6.07;2.17;;;14.00;99.90;;;;;;5046763;28;20502;-68
2022/06/16 02:48:16;;;;;;;3.72;2.00;;;14.00;99.90;;;;;;5041730;28;20135;-68
2022/06/16 02:50:54;;;;;;;5.78;2.30;;;14.00;99.90;;;;;;5045601;28;20082;-68
2022/06/16 02:53:46;;;;;;;3.72;2.15;;;14.00;99.90;;;;;;5039748;28;20091;-68
2022/06/16 02:56:25;;;;;;;5.45;2.42;;;14.00;99.90;;;;;;5044220;28;20044;-68
2022/06/16 02:58:53;;;;;;;6.68;2.33;;;13.90;99.90;;;;;;5035987;28;20044;-68
2022/06/16 03:01:19;;;;;;;5.03;2.42;;;13.90;99.90;;;;;;5042644;28;20045;-68
2022/06/16 03:04:01;;;;;;;7.30;2.50;;;13.90;99.90;;;;;;5033895;28;20080;-68
2022/06/16 03:06:27;;;;;;;8.25;2.05;;;13.80;99.90;;;;;;5044503;28;20048;-68
2022/06/16 03:08:53;;;;;;;4.63;2.05;;;13.80;99.90;;;;;;5046160;28;20037;-68
2022/06/16 03:11:18;;;;;;;4.20;2.10;;;13.80;99.90;;;;;;5049807;28;20037;-68
2022/06/16 03:13:44;;;;;;;3.35;1.80;;;13.80;99.90;;;;;;5038278;28;20053;-68
2022/06/16 03:16:10;;;;;;;5.83;2.07;;;13.70;99.90;;;;;;5043452;28;20502;-68
2022/06/16 03:18:35;;;;;;;5.40;2.20;;;13.70;99.90;;;;;;5047676;28;20116;-68
2022/06/16 03:21:01;;;;;;;6.25;2.17;;;13.70;99.90;;;;;;5045112;28;20041;-68
2022/06/16 03:23:27;;;;;;;4.15;1.88;;;13.60;99.90;;;;;;5044135;28;20041;-68
2022/06/16 03:25:53;;;;;;;4.75;2.08;;;13.60;99.90;;;;;;5041418;28;20477;-68
2022/06/16 03:28:19;;;;;;;4.38;2.00;;;13.60;99.90;;;;;;5063229;28;20048;-68
2022/06/16 03:30:44;;;;;;;3.45;2.03;;;13.60;99.90;;;;;;5048318;28;20212;-68
2022/06/16 03:33:11;;;;;;;5.88;2.10;;;13.60;99.90;;;;;;5041493;28;20108;-68
2022/06/16 03:35:37;;;;;;;;;;;13.60;99.90;;;;;;5042195;28;20044;-68
2022/06/16 03:38:07;;;;;;;5.25;2.28;;;13.70;99.90;;;;;;5040013;28;19916;-68
2022/06/16 03:40:32;;;;;;;5.05;2.60;;;13.70;99.90;;;;;;5046450;28;20444;-68
2022/06/16 03:42:58;;;;;;;3.90;1.97;;;13.70;99.90;;;;;;5042533;28;20041;-68
2022/06/16 03:45:23;;;;;;;10.83;2.27;;;13.70;99.90;;;;;;5041194;28;20295;-68
2022/06/16 03:47:49;;;;;;;4.13;1.90;;;13.70;99.90;;;;;;5041370;28;20047;-68
2022/06/16 03:50:17;;;;;;;4.30;1.90;;;13.80;99.90;;;;;;5046598;28;20295;-68
2022/06/16 03:52:43;;;;;;;4.30;2.13;;;13.80;99.90;;;;;;5047938;28;20067;-68
2022/06/16 03:55:09;;;;;;;5.78;2.13;;;13.90;99.90;;;;;;5040123;28;20059;-68
2022/06/16 03:57:34;;;;;;;3.60;1.88;;;13.90;99.90;;;;;;5057256;28;20033;-68
2022/06/16 04:00:00;;;;;;;5.63;1.97;;;13.80;99.90;;;;;;5044160;28;20030;-68
2022/06/16 04:02:26;;;;;;;5.20;1.80;;;13.80;99.90;;;;;;5045338;28;20336;-68
2022/06/16 04:04:51;;;;;;;4.53;2.30;;;13.90;99.90;;;;;;5046075;28;20068;-68
2022/06/16 04:07:17;;;;;;;3.50;2.10;;;13.90;99.90;;;;;;5043289;28;20375;-68
2022/06/16 04:09:43;;;;;;;3.03;1.98;;;13.90;99.90;;;;;;5036051;28;20508;-68
2022/06/16 04:12:09;;;;;;;6.77;2.17;;;13.90;99.90;;;;;;5045911;28;20382;-68
2022/06/16 04:14:35;;;;;;;5.40;2.85;;;13.90;99.90;;;;;;5043319;28;20045;-68
2022/06/16 04:17:00;;;;;;;4.43;2.10;;;14.00;99.90;;;;;;5050167;28;20047;-68
2022/06/16 04:19:26;;;;;;;4.53;2.03;;;14.00;99.90;;;;;;5064765;28;20502;-68
2022/06/16 04:21:53;;;;;;;3.92;2.10;;;14.10;99.90;;;;;;5050893;28;20030;-68
2022/06/16 04:24:21;;;;;;;8.25;2.30;;;14.00;99.90;;;;;;5042877;28;20041;-68
2022/06/16 04:26:51;;;;;;;6.22;2.47;;;14.10;99.90;;;;;;5041983;28;20052;-68
2022/06/16 04:29:18;;;;;;;5.65;2.90;;;14.20;99.90;;;;;;5044987;28;20095;-68
2022/06/16 04:31:44;;;;;;;4.57;2.40;;;14.20;99.90;;;;;;5054904;28;20072;-68
2022/06/16 04:34:10;;;;;;;5.35;2.97;;;14.20;99.90;;;;;;5047823;28;20079;-68
2022/06/16 04:36:36;;;;;;;5.03;2.15;;;14.20;99.90;;;;;;5062075;28;20128;-68
2022/06/16 04:39:02;;;;;;;4.03;1.98;;;14.30;99.90;;;;;;5043157;28;20036;-68
2022/06/16 04:41:28;;;;;;;4.30;2.42;;;14.30;99.90;;;;;;5049586;28;20416;-68
2022/06/16 04:43:54;;;;;;;3.70;2.30;;;14.40;99.90;;;;;;5040498;28;20315;-68
2022/06/16 04:46:20;;;;;;;4.70;2.30;;;14.40;99.90;;;;;;5047805;28;20039;-68
2022/06/16 04:48:46;;;;;;;;;;;14.40;99.90;;;;;;5046333;28;20045;-67
2022/06/16 04:51:13;;;;;;;3.45;1.90;;;14.40;99.90;;;;;;5049555;28;20201;-68
2022/06/16 04:53:39;;;;;;;4.45;2.28;;;14.40;99.90;;;;;;5033506;28;20397;-68
2022/06/16 04:56:06;;;;;;;6.00;2.20;;;14.40;99.90;;;;;;5039240;28;20029;-68
2022/06/16 04:58:32;;;;;;;4.68;1.80;;;14.40;99.90;;;;;;5049952;28;20037;-68
2022/06/16 05:00:58;;;;;;;5.05;2.10;;;14.50;99.90;;;;;;5051634;28;20044;-68
2022/06/16 05:03:25;;;;;;;3.90;2.13;;;14.50;99.90;;;;;;5031138;28;20046;-68
2022/06/16 05:05:52;;;;;;;4.55;2.58;;;14.50;99.90;;;;;;5046693;28;20425;-68
2022/06/16 05:08:19;;;;;;;7.50;2.28;;;14.50;99.90;;;;;;5046769;28;20049;-68
2022/06/16 05:10:49;;;;;;;4.03;2.20;;;14.50;99.90;;;;;;5049469;28;20409;-68
2022/06/16 05:13:16;;;;;;;4.00;2.25;;;14.50;99.90;;;;;;5044831;28;20045;-68
2022/06/16 05:15:42;;;;;;;9.43;2.70;;;14.60;99.90;;;;;;5038781;28;20112;-68
2022/06/16 05:18:09;;;;;;;4.80;2.30;;;14.60;99.90;;;;;;5041769;28;20030;-68
2022/06/16 05:20:35;;;;;;;4.63;1.98;;;14.60;99.90;;;;;;5035281;28;20531;-68
2022/06/16 05:23:01;;;;;;;4.25;2.83;;;14.60;99.90;;;;;;5043522;28;20127;-68
2022/06/16 05:25:27;;;;;;;3.30;1.85;;;14.60;99.90;;;;;;5044264;28;20052;-68
2022/06/16 05:27:53;;;;;;;4.03;2.33;;;14.60;99.90;;;;;;5044954;28;20033;-68
2022/06/16 05:30:19;;;;;;;5.57;2.25;;;14.60;99.90;;;;;;5064022;28;20041;-68
2022/06/16 05:32:44;;;;;;;3.67;2.10;;;14.70;99.90;;;;;;5040741;28;20040;-68
2022/06/16 05:35:11;;;;;;;7.05;2.03;;;14.70;99.90;;;;;;5042849;28;20037;-68
2022/06/16 05:37:38;;;;;;;5.13;1.75;;;14.70;99.90;;;;;;5062296;28;20041;-68
2022/06/16 05:40:05;;;;;;;6.18;1.95;;;14.70;99.90;;;;;;5047760;28;20158;-68
2022/06/16 05:42:31;;;;;;;3.95;2.10;;;14.80;99.90;;;;;;5046217;28;20118;-68
2022/06/16 05:44:56;;;;;;;4.10;1.98;;;14.80;99.90;;;;;;5037450;28;20244;-69
2022/06/16 05:47:22;;;;;;;8.97;2.93;;;14.80;99.90;;;;;;5036311;28;20044;-68
2022/06/16 05:49:47;;;;;;;7.22;2.70;;;14.80;99.90;;;;;;5043287;28;20041;-68
2022/06/16 05:52:15;;;;;;;8.27;2.28;;;14.90;99.90;;;;;;5039941;28;20441;-69
2022/06/16 05:54:41;;;;;;;10.00;2.30;;;14.90;99.90;;;;;;5048416;28;20077;-69
2022/06/16 05:57:08;;;;;;;10.90;2.03;;;14.90;99.90;;;;;;5045119;28;20036;-71
2022/06/16 05:59:35;;;;;;;3.78;1.80;;;15.00;99.90;;;;;;5045479;28;20113;-69
2022/06/16 06:02:01;;;;;;;6.18;1.98;;;15.00;99.90;;;;;;5046992;28;20032;-69
2022/06/16 06:04:27;;;;;;;3.67;1.75;;;15.00;99.90;;;;;;5036886;28;20055;-69
2022/06/16 06:06:53;;;;;;;5.90;1.85;;;15.10;99.90;;;;;;5039878;28;20045;-69
2022/06/16 06:17:36;;;;;;;4.25;1.40;;;15.20;99.90;;;;;;5059304;28;20076;-68
2022/06/16 06:20:03;;;;;;;5.50;1.80;;;15.30;99.90;;;;;;5048767;28;20033;-68
2022/06/16 06:22:29;;;;;;;4.03;1.55;;;15.40;99.90;;;;;;5036955;28;20042;-68
2022/06/16 06:24:58;;;;;;;5.15;1.42;;;15.40;99.90;;;;;;5063841;28;20546;-68
2022/06/16 06:27:40;;;;;;;2.22;0.90;;;15.40;99.90;;;;;;5051840;28;20448;-68
2022/06/16 06:30:08;;;;;;;2.75;1.02;;;15.50;99.90;;;;;;5037123;28;20037;-68
2022/06/16 06:32:34;;;;;;;2.47;0.90;;;15.60;99.90;;;;;;5042427;28;20041;-68
2022/06/16 06:34:59;;;;;;;1.77;0.77;;;15.60;99.90;;;;;;5041763;28;20059;-71
2022/06/16 06:37:27;;;;;;;2.40;1.00;;;15.70;99.90;;;;;;5048934;28;20512;-73
2022/06/16 06:39:53;;;;;;;2.17;0.90;;;15.70;99.90;;;;;;5029788;28;20402;-74
2022/06/16 06:42:20;;;;;;;3.08;0.98;;;15.70;99.90;;;;;;5056819;28;20535;-69
2022/06/16 06:44:46;;;;;;;2.95;0.70;;;15.80;99.90;;;;;;5041869;28;20394;-68
2022/06/16 06:47:22;;;;;;;3.35;0.88;;;15.80;99.90;;;;;;5044107;28;20476;-69
2022/06/16 06:49:48;;;;;;;3.75;1.50;;;15.90;99.90;;;;;;5041725;28;20045;-69
2022/06/16 06:52:14;;;;;;;;;;;15.90;99.90;;;;;;5040480;28;20033;-68
2022/06/16 06:54:42;;;;;;;1.88;0.73;;;16.00;99.90;;;;;;5032659;28;19924;-68
2022/06/16 06:57:13;;;;;;;2.30;0.90;;;16.00;99.90;;;;;;5044339;28;20045;-68
2022/06/16 06:59:38;;;;;;;4.55;1.00;;;16.10;99.90;;;;;;5031412;28;20516;-68
2022/06/16 07:02:04;;;;;;;2.63;0.90;;;16.20;99.90;;;;;;5031558;28;20077;-68
2022/06/16 07:04:30;;;;;;;3.40;0.93;;;16.20;99.90;;;;;;5035737;28;20393;-68
2022/06/16 07:06:56;;;;;;;2.17;0.70;;;16.30;99.90;;;;;;5046924;28;20047;-68
2022/06/16 07:09:22;;;;;;;3.00;0.90;;;16.30;99.90;;;;;;5045976;28;20040;-68
2022/06/16 07:11:48;;;;;;;4.15;0.93;;;16.40;99.90;;;;;;5048209;28;20113;-68
2022/06/16 07:14:14;;;;;;;1.00;0.70;;;16.40;99.90;;;;;;5039834;28;20045;-68
2022/06/16 07:16:40;;;;;;;1.30;0.90;;;16.40;99.90;;;;;;5034449;28;20559;-68
2022/06/16 07:19:06;;;;;;;1.73;0.90;;;16.50;99.90;;;;;;5044492;28;20025;-68
2022/06/16 07:21:31;;;;;;;;;;;16.50;99.90;;;;;;5042788;28;20122;-68
2022/06/16 07:23:57;;;;;;;1.67;0.60;;;16.60;99.90;;;;;;5041889;28;19962;-68
2022/06/16 07:26:24;;;;;;;3.10;1.10;;;16.50;99.90;;;;;;5037946;28;20044;-68
2022/06/16 07:28:50;;;;;;;1.95;0.63;;;16.60;99.90;;;;;;5038159;28;20037;-69
2022/06/16 07:31:16;;;;;;;7.18;1.30;;;16.70;99.90;;;;;;5061078;28;20076;-68
2022/06/16 07:33:42;;;;;;;4.30;1.50;;;16.70;99.90;;;;;;5038827;28;20515;-68
2022/06/16 07:36:10;;;;;;;3.28;1.00;;;16.80;99.90;;;;;;5043169;28;20052;-68
2022/06/16 07:38:36;;;;;;;2.25;1.00;;;16.80;99.90;;;;;;5042983;28;20068;-68
2022/06/16 07:43:46;;;;;;;1.73;0.80;;;16.90;99.90;;;;;;5035600;28;20042;-69
2022/06/16 07:46:11;;;;;;;3.83;1.00;;;17.00;99.90;;;;;;5038436;28;20051;-69
2022/06/16 07:48:37;;;;;;;2.58;0.90;;;17.00;99.90;;;;;;5047005;28;20079;-68
2022/06/16 07:51:03;;;;;;;3.10;1.10;;;17.10;99.90;;;;;;5042373;28;20494;-68
2022/06/16 07:53:28;;;;;;;3.05;1.00;;;17.20;99.90;;;;;;5044594;28;20037;-68
2022/06/16 07:55:54;;;;;;;5.20;1.50;;;17.20;99.90;;;;;;5033816;28;20041;-69
2022/06/16 07:58:20;;;;;;;3.55;0.98;;;17.20;99.90;;;;;;5048630;28;20451;-69
2022/06/16 08:00:45;;;;;;;3.33;1.10;;;17.30;99.90;;;;;;5040689;28;20068;-69
2022/06/16 08:03:11;;;;;;;5.07;1.45;;;17.30;99.90;;;;;;5039549;28;20039;-68
2022/06/16 08:05:36;;;;;;;3.20;1.33;;;17.50;99.90;;;;;;5047100;28;20397;-68
2022/06/16 08:08:02;;;;;;;1.95;0.98;;;17.50;99.90;;;;;;5044622;28;20033;-69
2022/06/16 08:10:32;;;;;;;2.92;1.10;;;17.60;99.90;;;;;;5049319;28;20033;-68
2022/06/16 08:12:58;;;;;;;2.83;0.80;;;17.70;99.90;;;;;;5047097;28;20072;-68
2022/06/16 08:15:24;;;;;;;3.22;1.13;;;17.80;99.90;;;;;;5047992;28;20048;-68
2022/06/16 08:17:52;;;;;;;3.53;1.20;;;17.90;99.90;;;;;;5033234;28;20555;-68
2022/06/16 08:20:17;;;;;;;2.85;1.27;;;17.90;99.90;;;;;;5041705;28;20403;-69
2022/06/16 08:22:43;;;;;;;3.13;1.25;;;18.00;99.90;;;;;;5043472;28;20047;-68
2022/06/16 08:25:12;;;;;;;3.15;1.27;;;18.10;99.90;;;;;;5037523;28;20040;-68
2022/06/16 08:27:40;;;;;;;2.78;1.00;;;18.20;99.90;;;;;;5040298;28;20037;-68
2022/06/16 08:30:09;;;;;;;4.97;1.60;;;18.20;99.90;;;;;;5045731;28;20037;-68
2022/06/16 08:32:35;;;;;;;2.78;1.30;;;18.30;99.90;;;;;;5040257;28;20033;-69
2022/06/16 08:35:02;;;;;;;3.47;1.50;;;18.40;99.90;;;;;;5046104;28;20063;-68
2022/06/16 08:37:28;;;;;;;2.33;1.30;;;18.40;99.90;;;;;;5033422;28;20041;-68
2022/06/16 08:39:53;;;;;;;3.00;1.77;;;18.40;99.90;;;;;;5048120;28;20044;-68
2022/06/16 08:42:25;;;;;;;3.58;1.83;;;18.50;99.90;;;;;;5040826;28;20103;-68
2022/06/16 08:45:06;;;;;;;4.40;1.40;;;18.50;99.90;;;;;;5045314;28;20484;-68
2022/06/16 08:47:44;;;;;;;4.22;1.50;;;18.50;99.90;;;;;;5039136;28;20056;-68
2022/06/16 08:50:22;;;;;;;3.22;1.50;;;18.50;99.90;;;;;;5045551;28;20051;-68
2022/06/16 08:53:16;;;;;;;2.40;1.27;;;18.40;99.90;;;;;;5048344;28;20607;-68
2022/06/16 08:56:04;;;;;;;3.80;1.35;;;18.50;99.90;;;;;;5053637;22;20121;-73
2022/06/16 08:58:46;;;;;;;4.03;1.60;;;18.50;99.90;;;;;;5028489;28;20108;-71
2022/06/16 09:01:22;;;;;;;4.70;2.00;;;18.60;99.90;;;;;;5013437;28;20336;-71
2022/06/16 09:04:18;;;;;;;3.63;1.75;;;18.70;99.90;;;;;;4990513;28;20092;-71
2022/06/16 09:07:01;;;;;;;4.60;2.10;;;18.80;99.90;;;;;;5013680;28;20096;-70
2022/06/16 09:10:15;;;;;;;4.20;2.10;;;18.90;99.90;;;;;;5008232;28;20064;-70
2022/06/16 09:12:52;;;;;;;4.00;1.98;;;19.00;99.90;;;;;;5015517;28;20069;-71
2022/06/16 09:15:37;;;;;;;5.15;1.70;;;19.10;99.90;;;;;;5017901;28;20408;-71
2022/06/16 09:18:08;;;;;;;2.35;1.65;;;19.10;99.90;;;;;;5012844;28;20589;-71
2022/06/16 09:20:59;;;;;;;5.07;1.90;;;19.30;99.90;;;;;;5017269;28;20072;-71
2022/06/16 09:23:35;;;;;;;3.92;1.98;;;19.30;99.90;;;;;;5022582;28;20048;-71
2022/06/16 09:26:20;;;;;;;3.25;1.83;;;19.50;99.90;;;;;;5022809;28;20037;-71
2022/06/16 09:29:00;;;;;;;5.80;1.98;;;19.50;99.90;;;;;;5014441;28;20514;-71
2022/06/16 09:31:35;;;;;;;3.28;1.50;;;19.50;99.90;;;;;;5008946;28;20528;-71
2022/06/16 09:34:12;;;;;;;4.05;1.90;;;19.60;99.90;;;;;;5009624;28;20227;-71
2022/06/16 09:36:43;;;;;;;3.85;1.73;;;19.80;99.90;;;;;;5011701;28;20058;-71
2022/06/16 09:39:29;;;;;;;4.30;1.98;;;19.80;99.90;;;;;;5014932;28;20042;-70
2022/06/16 09:42:32;;;;;;;3.55;1.85;;;20.00;99.90;;;;;;5013577;28;20057;-71
2022/06/16 09:45:10;;;;;;;4.18;2.20;;;20.10;99.90;;;;;;5012657;28;20042;-71
2022/06/16 09:47:51;;;;;;;8.65;2.22;;;20.20;99.90;;;;;;5022940;28;20042;-71
2022/06/16 09:50:38;;;;;;;3.78;1.65;;;20.20;99.90;;;;;;5020142;28;20037;-71
2022/06/16 09:53:04;;;;;;;;;;;20.30;99.90;;;;;;5012435;28;20049;-70
2022/06/16 09:55:37;;;;;;;6.32;2.22;;;20.40;99.90;;;;;;5024591;28;19917;-71
2022/06/16 09:58:21;;;;;;;3.88;1.65;;;20.50;99.90;;;;;;5016382;28;20045;-71
2022/06/16 10:00:48;;;;;;;4.78;1.83;;;20.50;99.90;;;;;;5024382;28;20049;-70
2022/06/16 10:03:33;;;;;;;4.57;1.73;;;20.60;99.90;;;;;;5038883;28;20041;-70
2022/06/16 10:06:23;;;;;;;4.40;2.25;;;20.60;99.90;;;;;;5020370;28;20080;-71
2022/06/16 10:09:11;;;;;;;4.35;2.10;;;20.70;99.90;;;;;;5030367;28;20383;-70
2022/06/16 10:12:02;;;;;;;2.72;1.60;;;20.80;99.90;;;;;;5012666;28;20095;-73
2022/06/16 10:15:04;;;;;;;7.30;2.03;;;20.90;99.90;;;;;;5020115;28;20049;-73
2022/06/16 10:17:31;;;;;;;2.90;1.60;;;20.90;98.10;;;;;;5017376;28;20037;-71
2022/06/16 10:19:58;;;;;;;3.70;1.88;;;20.90;99.90;;;;;;5013003;28;20052;-70
2022/06/16 10:22:25;;;;;;;2.92;1.80;;;21.00;99.80;;;;;;5025186;28;20037;-70
2022/06/16 10:24:58;;;;;;;3.10;1.80;;;21.00;99.50;;;;;;5023928;28;20045;-71
2022/06/16 10:27:33;;;;;;;3.75;1.80;;;21.00;97.30;;;;;;5012765;28;20051;-70
2022/06/16 10:30:00;;;;;;;5.47;1.80;;;21.10;98.10;;;;;;5010548;28;20057;-71
2022/06/16 10:32:44;;;;;;;4.88;1.55;;;21.10;99.90;;;;;;5025348;28;20105;-71
2022/06/16 10:35:19;;;;;;;3.25;1.73;;;21.20;99.10;;;;;;5007225;28;20373;-70
2022/06/16 10:37:48;;;;;;;2.65;1.65;;;21.30;97.50;;;;;;5013912;28;20037;-70
2022/06/16 10:40:18;;;;;;;3.85;1.55;;;21.30;95.00;;;;;;5010726;28;20053;-70
2022/06/16 10:43:13;;;;;;;5.13;1.67;;;21.40;97.50;;;;;;5017291;28;20042;-70
2022/06/16 10:45:40;;;;;;;6.43;1.38;;;21.50;92.00;;;;;;5003311;28;20566;-71
2022/06/16 10:48:24;;;;;;;4.63;1.52;;;21.50;94.60;;;;;;4992092;28;20398;-71
2022/06/16 10:51:03;;;;;;;4.45;1.90;;;21.50;94.20;;;;;;5009754;28;20053;-71
2022/06/16 10:53:36;;;;;;;2.92;1.45;;;21.60;94.20;;;;;;5017686;28;20103;-71
2022/06/16 10:56:10;;;;;;;2.80;1.48;;;21.70;91.80;;;;;;5021802;28;20048;-72
2022/06/16 10:59:24;;;;;;;3.22;1.55;;;21.80;92.60;;;;;;5018285;28;20045;-72
2022/06/16 11:02:22;;;;;;;2.30;1.65;;;22.00;93.80;;;;;;5009062;28;20053;-72
2022/06/16 11:04:58;;;;;;;5.57;2.03;;;22.10;92.60;;;;;;5020609;28;20460;-72
2022/06/16 11:07:29;;;;;;;5.10;1.20;;;22.10;91.70;;;;;;5019956;28;20103;-72
2022/06/16 11:10:04;;;;;;;3.97;1.40;;;22.10;92.20;;;;;;5012785;28;20292;-72
2022/06/16 11:12:31;;;;;;;7.03;2.53;;;22.10;91.60;;;;;;4997460;28;20056;-72
2022/06/16 11:15:17;;;;;;;3.03;1.42;;;22.10;90.70;;;;;;5022000;28;20442;-72
2022/06/16 11:17:48;;;;;;;3.83;1.90;;;22.10;89.10;;;;;;4994487;28;20038;-72
2022/06/16 11:20:38;;;;;;;5.55;1.70;;;22.10;91.40;;;;;;5017311;28;20087;-72
2022/06/16 11:23:41;;;;;;;4.05;1.70;;;22.20;92.10;;;;;;5004780;28;20045;-72
2022/06/16 11:26:41;;;;;;;2.97;2.10;;;22.40;93.30;;;;;;5012466;28;20132;-72
2022/06/16 11:29:10;;;;;;;4.13;1.65;;;22.40;91.90;;;;;;5009358;28;20053;-72
2022/06/16 11:31:48;;;;;;;2.85;1.52;;;22.40;91.30;;;;;;5026018;28;20047;-72
2022/06/16 11:34:27;;;;;;;3.80;1.75;;;22.50;91.60;;;;;;5024308;28;20405;-72
2022/06/16 11:37:04;;;;;;;4.10;1.40;;;22.60;81.30;;;;;;5011712;28;20074;-72
2022/06/16 11:40:04;;;;;;;7.22;1.70;;;22.60;85.60;;;;;;5018951;28;20058;-72
2022/06/16 11:42:35;;;;;;;2.60;1.42;;;22.70;89.80;;;;;;5018069;28;20092;-72
2022/06/16 11:45:49;;;;;;;3.13;1.30;;;22.80;91.00;;;;;;5007028;28;20395;-72
2022/06/16 11:48:43;;;;;;;2.88;1.17;;;22.90;90.50;;;;;;5003840;28;20120;-72
2022/06/16 11:51:23;;;;;;;2.60;1.48;;;22.90;89.60;;;;;;5018580;28;20378;-72
2022/06/16 11:54:08;;;;;;;2.08;1.48;;;23.00;82.00;;;;;;5020265;28;20041;-72
2022/06/16 11:56:55;;;;;;;2.30;1.20;;;23.00;81.00;;;;;;5017706;28;20117;-72
2022/06/16 11:59:48;;;;;;;4.97;1.40;;;23.10;81.80;;;;;;5020330;28;20482;-72
2022/06/16 12:02:25;;;;;;;3.53;1.75;;;23.20;80.10;;;;;;5025460;28;20041;-72
2022/06/16 12:05:33;;;;;;;3.67;1.30;;;23.40;78.00;;;;;;5020036;28;20049;-72
2022/06/16 12:08:28;;;;;;;5.88;1.55;;;23.40;79.20;;;;;;4994225;28;20136;-72
2022/06/16 12:11:14;;;;;;;3.55;1.45;;;23.50;73.90;;;;;;5005129;28;20046;-72
2022/06/16 12:13:51;;;;;;;3.67;1.77;;;23.50;75.70;;;;;;5008763;28;20045;-72
2022/06/16 12:16:26;;;;;;;3.13;1.30;;;23.50;73.30;;;;;;5013211;28;20424;-72
2022/06/16 12:19:04;;;;;;;3.75;1.65;;;23.50;75.30;;;;;;5013149;28;20093;-72
2022/06/16 12:21:42;;;;;;;4.03;1.77;;;23.60;72.60;;;;;;5013213;28;20133;-72
2022/06/16 12:24:22;;;;;;;3.35;1.55;;;23.70;71.40;;;;;;5021762;28;20084;-72
2022/06/16 12:27:15;;;;;;;3.10;1.70;;;23.70;69.00;;;;;;5007715;28;20053;-72
2022/06/16 12:30:15;;;;;;;3.72;1.30;;;23.70;66.60;;;;;;5021201;28;20513;-72
2022/06/16 12:33:12;;;;;;;3.42;2.13;;;23.70;67.80;;;;;;5020255;28;20057;-72
2022/06/16 12:35:50;;;;;;;;;;;23.80;66.40;;;;;;5022166;28;20053;-72
2022/06/16 12:38:26;;;;;;;4.75;1.88;;;23.90;69.50;;;;;;5020441;28;20175;-72
2022/06/16 12:40:58;;;;;;;4.80;1.50;;;23.90;71.10;;;;;;5019143;28;20072;-72
2022/06/16 12:43:34;;;;;;;2.60;1.63;;;24.00;69.90;;;;;;5021506;28;20298;-72
2022/06/16 12:46:14;;;;;;;3.20;1.63;;;24.10;70.10;;;;;;5020017;28;20041;-72
2022/06/16 12:48:50;;;;;;;2.83;1.70;;;24.10;67.10;;;;;;5016812;28;20038;-72
2022/06/16 12:51:20;;;;;;;4.10;1.90;;;24.20;65.20;;;;;;5025824;28;20447;-72
2022/06/16 12:53:56;;;;;;;4.28;1.63;;;24.30;64.40;;;;;;5011240;28;20061;-72
2022/06/16 12:56:55;;;;;;;4.10;1.80;;;24.40;64.60;;;;;;5010574;28;20169;-72
2022/06/16 12:59:41;;;;;;;2.33;1.08;;;24.20;61.10;;;;;;5043587;28;20089;-72
2022/06/16 13:02:14;;;;;;;2.05;1.20;;;24.20;60.50;;;;;;5026908;28;20490;-72
2022/06/16 13:04:40;;;;;;;3.05;1.48;;;24.30;59.30;;;;;;5018642;28;20491;-72
2022/06/16 13:07:14;;;;;;;4.43;1.75;;;24.30;61.40;;;;;;5010504;28;20493;-72
2022/06/16 13:09:43;;;;;;;2.50;1.38;;;24.20;59.00;;;;;;5025689;28;20132;-72
2022/06/16 13:12:25;;;;;;;2.42;1.00;;;24.30;60.20;;;;;;5012344;28;20463;-72
2022/06/16 13:15:03;;;;;;;2.55;1.35;;;24.40;60.70;;;;;;4997531;28;20121;-72
2022/06/16 13:17:34;;;;;;;2.22;1.13;;;24.50;59.30;;;;;;5018095;28;20045;-72
2022/06/16 13:20:10;;;;;;;2.67;1.55;;;24.60;59.90;;;;;;5017658;28;20529;-72
2022/06/16 13:22:42;;;;;;;4.38;1.23;;;24.60;59.00;;;;;;5009932;28;20068;-72
2022/06/16 13:25:14;;;;;;;2.70;1.40;;;24.60;57.70;;;;;;5027510;28;20083;-72
2022/06/16 13:27:39;;;;;;;3.03;1.33;;;24.70;58.30;;;;;;5022412;28;20087;-72
2022/06/16 13:30:05;;;;;;;1.85;1.00;;;24.80;58.20;;;;;;5028142;28;20448;-72
2022/06/16 13:32:41;;;;;;;5.15;1.42;;;24.70;56.10;;;;;;5012890;28;20534;-72
2022/06/16 13:35:13;;;;;;;2.25;1.20;;;24.70;56.50;;;;;;5016055;28;20420;-72